sensor_id;sensor_type;location;lat;lon;timestamp;P1;durP1;ratioP1;P2;durP2;ratioP2
8139;SDS011;4111;50.972;7.072;2023-10-08T00:00:47;8.73;;;5.37;;
8139;SDS011;4111;50.972;7.072;2023-10-08T00:03:22;8.77;;;5.03;;
8139;SDS011;4111;50.972;7.072;2023-10-08T00:05:49;8.80;;;5.20;;
8139;SDS011;4111;50.972;7.072;2023-10-08T00:08:16;7.77;;;5.37;;
8139;SDS011;4111;50.972;7.072;2023-10-08T00:10:43;11.00;;;6.70;;
8139;SDS011;4111;50.972;7.072;2023-10-08T00:13:11;8.40;;;5.73;;
8139;SDS011;4111;50.972;7.072;2023-10-08T00:15:39;7.70;;;5.20;;
8139;SDS011;4111;50.972;7.072;2023-10-08T00:18:20;6.90;;;5.10;;
8139;SDS011;4111;50.972;7.072;2023-10-08T00:20:49;7.67;;;5.07;;
8139;SDS011;4111;50.972;7.072;2023-10-08T00:23:42;7.60;;;5.73;;
8139;SDS011;4111;50.972;7.072;2023-10-08T00:26:19;5.80;;;5.20;;
8139;SDS011;4111;50.972;7.072;2023-10-08T00:29:02;6.70;;;5.23;;
8139;SDS011;4111;50.972;7.072;2023-10-08T00:31:43;9.17;;;5.40;;
8139;SDS011;4111;50.972;7.072;2023-10-08T00:34:11;8.10;;;5.70;;
8139;SDS011;4111;50.972;7.072;2023-10-08T00:36:40;6.00;;;5.40;;
8139;SDS011;4111;50.972;7.072;2023-10-08T00:39:08;7.33;;;5.23;;
8139;SDS011;4111;50.972;7.072;2023-10-08T00:41:40;12.10;;;5.43;;
8139;SDS011;4111;50.972;7.072;2023-10-08T00:44:12;9.87;;;5.53;;
8139;SDS011;4111;50.972;7.072;2023-10-08T00:46:42;7.60;;;5.10;;
8139;SDS011;4111;50.972;7.072;2023-10-08T00:49:24;6.00;;;4.90;;
8139;SDS011;4111;50.972;7.072;2023-10-08T00:51:53;10.33;;;4.93;;
8139;SDS011;4111;50.972;7.072;2023-10-08T00:54:47;7.47;;;5.33;;
8139;SDS011;4111;50.972;7.072;2023-10-08T00:57:32;7.07;;;4.73;;
8139;SDS011;4111;50.972;7.072;2023-10-08T01:00:03;9.47;;;5.70;;
8139;SDS011;4111;50.972;7.072;2023-10-08T01:02:32;7.20;;;5.07;;
8139;SDS011;4111;50.972;7.072;2023-10-08T01:05:13;9.17;;;5.00;;
8139;SDS011;4111;50.972;7.072;2023-10-08T01:07:41;6.37;;;4.90;;
8139;SDS011;4111;50.972;7.072;2023-10-08T01:10:11;6.97;;;4.30;;
8139;SDS011;4111;50.972;7.072;2023-10-08T01:12:39;7.17;;;4.93;;
8139;SDS011;4111;50.972;7.072;2023-10-08T01:15:38;7.37;;;4.53;;
8139;SDS011;4111;50.972;7.072;2023-10-08T01:18:07;8.17;;;4.67;;
8139;SDS011;4111;50.972;7.072;2023-10-08T01:20:41;6.43;;;4.47;;
8139;SDS011;4111;50.972;7.072;2023-10-08T01:23:14;10.27;;;4.73;;
8139;SDS011;4111;50.972;7.072;2023-10-08T01:25:43;11.80;;;8.10;;
8139;SDS011;4111;50.972;7.072;2023-10-08T01:28:17;7.93;;;5.20;;
8139;SDS011;4111;50.972;7.072;2023-10-08T01:30:55;6.23;;;4.80;;
8139;SDS011;4111;50.972;7.072;2023-10-08T01:33:26;4.60;;;4.13;;
8139;SDS011;4111;50.972;7.072;2023-10-08T01:35:56;5.93;;;4.43;;
8139;SDS011;4111;50.972;7.072;2023-10-08T01:38:31;6.20;;;4.70;;
8139;SDS011;4111;50.972;7.072;2023-10-08T01:41:01;7.33;;;4.33;;
8139;SDS011;4111;50.972;7.072;2023-10-08T01:43:45;5.43;;;4.40;;
8139;SDS011;4111;50.972;7.072;2023-10-08T01:46:12;7.87;;;4.53;;
8139;SDS011;4111;50.972;7.072;2023-10-08T01:48:38;6.70;;;4.50;;
8139;SDS011;4111;50.972;7.072;2023-10-08T01:51:05;7.13;;;4.77;;
8139;SDS011;4111;50.972;7.072;2023-10-08T01:53:37;6.90;;;4.57;;
8139;SDS011;4111;50.972;7.072;2023-10-08T01:56:05;6.90;;;4.40;;
8139;SDS011;4111;50.972;7.072;2023-10-08T01:58:31;6.40;;;4.50;;
8139;SDS011;4111;50.972;7.072;2023-10-08T02:01:00;5.13;;;3.90;;
8139;SDS011;4111;50.972;7.072;2023-10-08T02:03:26;5.00;;;4.47;;
8139;SDS011;4111;50.972;7.072;2023-10-08T02:05:56;7.90;;;4.63;;
8139;SDS011;4111;50.972;7.072;2023-10-08T02:08:26;5.87;;;4.90;;
8139;SDS011;4111;50.972;7.072;2023-10-08T02:10:52;5.57;;;4.17;;
8139;SDS011;4111;50.972;7.072;2023-10-08T02:13:19;8.47;;;5.07;;
8139;SDS011;4111;50.972;7.072;2023-10-08T02:15:49;5.57;;;4.87;;
8139;SDS011;4111;50.972;7.072;2023-10-08T02:18:20;9.53;;;4.83;;
8139;SDS011;4111;50.972;7.072;2023-10-08T02:20:49;5.30;;;4.57;;
8139;SDS011;4111;50.972;7.072;2023-10-08T02:23:16;7.80;;;4.57;;
8139;SDS011;4111;50.972;7.072;2023-10-08T02:25:44;7.03;;;4.50;;
8139;SDS011;4111;50.972;7.072;2023-10-08T02:28:10;8.30;;;4.53;;
8139;SDS011;4111;50.972;7.072;2023-10-08T02:30:42;7.57;;;4.77;;
8139;SDS011;4111;50.972;7.072;2023-10-08T02:33:09;6.63;;;4.70;;
8139;SDS011;4111;50.972;7.072;2023-10-08T02:35:41;6.43;;;4.37;;
8139;SDS011;4111;50.972;7.072;2023-10-08T02:38:13;9.83;;;5.70;;
8139;SDS011;4111;50.972;7.072;2023-10-08T02:40:47;9.47;;;5.00;;
8139;SDS011;4111;50.972;7.072;2023-10-08T02:43:14;5.87;;;4.33;;
8139;SDS011;4111;50.972;7.072;2023-10-08T02:45:42;4.57;;;4.10;;
8139;SDS011;4111;50.972;7.072;2023-10-08T02:48:13;7.47;;;4.83;;
8139;SDS011;4111;50.972;7.072;2023-10-08T02:50:40;6.37;;;4.80;;
8139;SDS011;4111;50.972;7.072;2023-10-08T02:53:07;10.80;;;4.40;;
8139;SDS011;4111;50.972;7.072;2023-10-08T02:55:40;6.63;;;4.23;;
8139;SDS011;4111;50.972;7.072;2023-10-08T02:58:13;8.03;;;4.90;;
8139;SDS011;4111;50.972;7.072;2023-10-08T03:00:42;5.90;;;4.50;;
8139;SDS011;4111;50.972;7.072;2023-10-08T03:03:09;6.37;;;4.40;;
8139;SDS011;4111;50.972;7.072;2023-10-08T03:05:45;8.27;;;4.50;;
8139;SDS011;4111;50.972;7.072;2023-10-08T03:08:14;9.80;;;4.60;;
8139;SDS011;4111;50.972;7.072;2023-10-08T03:10:48;7.17;;;4.80;;
8139;SDS011;4111;50.972;7.072;2023-10-08T03:13:16;5.50;;;4.50;;
8139;SDS011;4111;50.972;7.072;2023-10-08T03:15:43;10.07;;;4.43;;
8139;SDS011;4111;50.972;7.072;2023-10-08T03:18:24;7.70;;;4.77;;
8139;SDS011;4111;50.972;7.072;2023-10-08T03:20:51;5.13;;;4.30;;
8139;SDS011;4111;50.972;7.072;2023-10-08T03:23:17;9.40;;;4.80;;
8139;SDS011;4111;50.972;7.072;2023-10-08T03:25:52;7.17;;;4.67;;
8139;SDS011;4111;50.972;7.072;2023-10-08T03:28:37;7.73;;;4.87;;
8139;SDS011;4111;50.972;7.072;2023-10-08T03:31:04;6.37;;;3.90;;
8139;SDS011;4111;50.972;7.072;2023-10-08T03:33:32;6.50;;;3.90;;
8139;SDS011;4111;50.972;7.072;2023-10-08T03:36:01;6.90;;;5.03;;
8139;SDS011;4111;50.972;7.072;2023-10-08T03:38:36;10.30;;;5.00;;
8139;SDS011;4111;50.972;7.072;2023-10-08T03:41:17;6.13;;;4.50;;
8139;SDS011;4111;50.972;7.072;2023-10-08T03:43:56;8.27;;;4.07;;
8139;SDS011;4111;50.972;7.072;2023-10-08T03:46:32;5.63;;;4.53;;
8139;SDS011;4111;50.972;7.072;2023-10-08T03:49:09;6.43;;;4.80;;
8139;SDS011;4111;50.972;7.072;2023-10-08T03:51:48;5.77;;;4.53;;
8139;SDS011;4111;50.972;7.072;2023-10-08T03:54:19;5.83;;;3.97;;
8139;SDS011;4111;50.972;7.072;2023-10-08T03:56:55;6.90;;;4.70;;
8139;SDS011;4111;50.972;7.072;2023-10-08T03:59:22;8.87;;;4.27;;
8139;SDS011;4111;50.972;7.072;2023-10-08T04:02:00;8.27;;;4.57;;
8139;SDS011;4111;50.972;7.072;2023-10-08T04:04:41;7.10;;;4.77;;
8139;SDS011;4111;50.972;7.072;2023-10-08T04:07:18;6.43;;;4.53;;
8139;SDS011;4111;50.972;7.072;2023-10-08T04:09:55;5.77;;;4.50;;
8139;SDS011;4111;50.972;7.072;2023-10-08T04:12:52;9.57;;;5.00;;
8139;SDS011;4111;50.972;7.072;2023-10-08T04:15:19;6.80;;;4.30;;
8139;SDS011;4111;50.972;7.072;2023-10-08T04:17:45;4.63;;;4.13;;
8139;SDS011;4111;50.972;7.072;2023-10-08T04:20:17;8.63;;;4.90;;
8139;SDS011;4111;50.972;7.072;2023-10-08T04:23:06;5.37;;;4.47;;
8139;SDS011;4111;50.972;7.072;2023-10-08T04:25:40;8.80;;;5.17;;
8139;SDS011;4111;50.972;7.072;2023-10-08T04:28:09;8.77;;;4.70;;
8139;SDS011;4111;50.972;7.072;2023-10-08T04:30:40;4.93;;;3.80;;
8139;SDS011;4111;50.972;7.072;2023-10-08T04:33:07;10.37;;;4.10;;
8139;SDS011;4111;50.972;7.072;2023-10-08T04:35:41;6.60;;;4.50;;
8139;SDS011;4111;50.972;7.072;2023-10-08T04:38:19;6.93;;;4.67;;
8139;SDS011;4111;50.972;7.072;2023-10-08T04:40:53;7.73;;;4.10;;
8139;SDS011;4111;50.972;7.072;2023-10-08T04:43:23;4.73;;;3.97;;
8139;SDS011;4111;50.972;7.072;2023-10-08T04:45:57;7.10;;;4.40;;
8139;SDS011;4111;50.972;7.072;2023-10-08T04:48:25;6.53;;;4.90;;
8139;SDS011;4111;50.972;7.072;2023-10-08T04:50:53;6.60;;;4.57;;
8139;SDS011;4111;50.972;7.072;2023-10-08T04:53:27;9.60;;;4.67;;
8139;SDS011;4111;50.972;7.072;2023-10-08T04:56:04;7.47;;;4.43;;
8139;SDS011;4111;50.972;7.072;2023-10-08T04:58:33;6.43;;;5.30;;
8139;SDS011;4111;50.972;7.072;2023-10-08T05:01:03;5.30;;;4.73;;
8139;SDS011;4111;50.972;7.072;2023-10-08T05:03:55;8.17;;;4.97;;
8139;SDS011;4111;50.972;7.072;2023-10-08T05:11:39;5.97;;;4.50;;
8139;SDS011;4111;50.972;7.072;2023-10-08T05:14:24;7.53;;;4.53;;
8139;SDS011;4111;50.972;7.072;2023-10-08T05:17:01;6.67;;;4.57;;
8139;SDS011;4111;50.972;7.072;2023-10-08T05:19:48;5.43;;;4.70;;
8139;SDS011;4111;50.972;7.072;2023-10-08T05:22:33;7.33;;;4.77;;
8139;SDS011;4111;50.972;7.072;2023-10-08T05:25:10;5.90;;;4.70;;
8139;SDS011;4111;50.972;7.072;2023-10-08T05:27:51;8.57;;;4.80;;
8139;SDS011;4111;50.972;7.072;2023-10-08T05:30:23;5.57;;;4.00;;
8139;SDS011;4111;50.972;7.072;2023-10-08T05:33:04;6.60;;;4.87;;
8139;SDS011;4111;50.972;7.072;2023-10-08T05:35:44;6.80;;;4.57;;
8139;SDS011;4111;50.972;7.072;2023-10-08T05:38:13;8.07;;;4.60;;
8139;SDS011;4111;50.972;7.072;2023-10-08T05:40:57;5.30;;;4.23;;
8139;SDS011;4111;50.972;7.072;2023-10-08T05:43:25;7.00;;;4.13;;
8139;SDS011;4111;50.972;7.072;2023-10-08T05:46:15;6.57;;;4.70;;
8139;SDS011;4111;50.972;7.072;2023-10-08T05:49:05;7.03;;;5.03;;
8139;SDS011;4111;50.972;7.072;2023-10-08T05:51:35;7.17;;;4.80;;
8139;SDS011;4111;50.972;7.072;2023-10-08T05:54:14;8.97;;;4.90;;
8139;SDS011;4111;50.972;7.072;2023-10-08T05:57:02;7.30;;;4.87;;
8139;SDS011;4111;50.972;7.072;2023-10-08T05:59:44;5.43;;;4.60;;
8139;SDS011;4111;50.972;7.072;2023-10-08T06:02:26;6.77;;;4.43;;
8139;SDS011;4111;50.972;7.072;2023-10-08T06:05:06;8.93;;;4.73;;
8139;SDS011;4111;50.972;7.072;2023-10-08T06:07:41;7.40;;;5.23;;
8139;SDS011;4111;50.972;7.072;2023-10-08T06:10:23;8.03;;;5.20;;
8139;SDS011;4111;50.972;7.072;2023-10-08T06:13:08;6.90;;;4.80;;
8139;SDS011;4111;50.972;7.072;2023-10-08T06:18:32;6.93;;;4.67;;
8139;SDS011;4111;50.972;7.072;2023-10-08T06:21:03;5.33;;;4.40;;
8139;SDS011;4111;50.972;7.072;2023-10-08T06:23:35;5.03;;;4.53;;
8139;SDS011;4111;50.972;7.072;2023-10-08T06:26:03;5.83;;;4.53;;
8139;SDS011;4111;50.972;7.072;2023-10-08T06:28:39;6.37;;;4.57;;
8139;SDS011;4111;50.972;7.072;2023-10-08T06:31:08;6.83;;;4.80;;
8139;SDS011;4111;50.972;7.072;2023-10-08T06:33:38;7.43;;;5.00;;
8139;SDS011;4111;50.972;7.072;2023-10-08T06:36:08;7.40;;;4.50;;
8139;SDS011;4111;50.972;7.072;2023-10-08T06:38:37;12.87;;;5.50;;
8139;SDS011;4111;50.972;7.072;2023-10-08T06:41:05;8.27;;;4.80;;
8139;SDS011;4111;50.972;7.072;2023-10-08T06:43:49;5.70;;;4.77;;
8139;SDS011;4111;50.972;7.072;2023-10-08T06:46:17;8.30;;;4.53;;
8139;SDS011;4111;50.972;7.072;2023-10-08T06:48:48;10.17;;;4.77;;
8139;SDS011;4111;50.972;7.072;2023-10-08T06:51:15;10.40;;;4.37;;
8139;SDS011;4111;50.972;7.072;2023-10-08T06:53:46;7.10;;;4.70;;
8139;SDS011;4111;50.972;7.072;2023-10-08T06:56:16;7.47;;;4.37;;
8139;SDS011;4111;50.972;7.072;2023-10-08T06:58:46;5.83;;;4.77;;
8139;SDS011;4111;50.972;7.072;2023-10-08T07:01:16;7.63;;;5.10;;
8139;SDS011;4111;50.972;7.072;2023-10-08T07:03:47;8.67;;;4.77;;
8139;SDS011;4111;50.972;7.072;2023-10-08T07:06:18;7.73;;;4.80;;
8139;SDS011;4111;50.972;7.072;2023-10-08T07:08:58;5.40;;;4.63;;
8139;SDS011;4111;50.972;7.072;2023-10-08T07:11:26;7.97;;;5.00;;
8139;SDS011;4111;50.972;7.072;2023-10-08T07:13:53;8.95;;;5.43;;
8139;SDS011;4111;50.972;7.072;2023-10-08T07:16:19;8.80;;;4.90;;
8139;SDS011;4111;50.972;7.072;2023-10-08T07:18:47;8.50;;;5.10;;
8139;SDS011;4111;50.972;7.072;2023-10-08T07:21:21;8.60;;;5.03;;
8139;SDS011;4111;50.972;7.072;2023-10-08T07:24:14;9.23;;;5.23;;
8139;SDS011;4111;50.972;7.072;2023-10-08T07:26:43;10.40;;;5.30;;
8139;SDS011;4111;50.972;7.072;2023-10-08T07:29:14;8.50;;;4.47;;
8139;SDS011;4111;50.972;7.072;2023-10-08T07:31:44;7.73;;;4.90;;
8139;SDS011;4111;50.972;7.072;2023-10-08T07:34:15;7.77;;;4.67;;
8139;SDS011;4111;50.972;7.072;2023-10-08T07:36:43;6.87;;;5.43;;
8139;SDS011;4111;50.972;7.072;2023-10-08T07:39:11;6.03;;;4.70;;
8139;SDS011;4111;50.972;7.072;2023-10-08T07:41:56;6.47;;;4.90;;
8139;SDS011;4111;50.972;7.072;2023-10-08T07:44:23;8.93;;;5.17;;
8139;SDS011;4111;50.972;7.072;2023-10-08T07:46:50;7.43;;;4.70;;
8139;SDS011;4111;50.972;7.072;2023-10-08T07:49:18;10.00;;;5.00;;
8139;SDS011;4111;50.972;7.072;2023-10-08T07:51:44;7.17;;;5.10;;
8139;SDS011;4111;50.972;7.072;2023-10-08T07:54:17;11.03;;;5.80;;
8139;SDS011;4111;50.972;7.072;2023-10-08T07:56:46;8.57;;;4.60;;
8139;SDS011;4111;50.972;7.072;2023-10-08T07:59:14;8.50;;;5.27;;
8139;SDS011;4111;50.972;7.072;2023-10-08T08:01:44;9.50;;;5.30;;
8139;SDS011;4111;50.972;7.072;2023-10-08T08:04:11;12.47;;;4.83;;
8139;SDS011;4111;50.972;7.072;2023-10-08T08:06:49;7.17;;;4.60;;
8139;SDS011;4111;50.972;7.072;2023-10-08T08:09:17;8.90;;;5.53;;
8139;SDS011;4111;50.972;7.072;2023-10-08T08:11:46;5.60;;;4.43;;
8139;SDS011;4111;50.972;7.072;2023-10-08T08:14:16;7.80;;;4.67;;
8139;SDS011;4111;50.972;7.072;2023-10-08T08:16:43;8.17;;;5.13;;
8139;SDS011;4111;50.972;7.072;2023-10-08T08:19:14;8.97;;;5.23;;
8139;SDS011;4111;50.972;7.072;2023-10-08T08:21:45;8.57;;;5.00;;
8139;SDS011;4111;50.972;7.072;2023-10-08T08:24:12;9.73;;;5.10;;
8139;SDS011;4111;50.972;7.072;2023-10-08T08:26:39;8.87;;;5.23;;
8139;SDS011;4111;50.972;7.072;2023-10-08T08:29:10;7.53;;;5.07;;
8139;SDS011;4111;50.972;7.072;2023-10-08T08:31:41;7.67;;;4.90;;
8139;SDS011;4111;50.972;7.072;2023-10-08T08:34:12;11.43;;;5.23;;
8139;SDS011;4111;50.972;7.072;2023-10-08T08:36:46;8.57;;;4.73;;
8139;SDS011;4111;50.972;7.072;2023-10-08T08:39:18;9.53;;;5.43;;
8139;SDS011;4111;50.972;7.072;2023-10-08T08:41:59;9.10;;;5.00;;
8139;SDS011;4111;50.972;7.072;2023-10-08T08:44:35;6.97;;;4.63;;
8139;SDS011;4111;50.972;7.072;2023-10-08T08:47:11;9.40;;;4.97;;
8139;SDS011;4111;50.972;7.072;2023-10-08T08:49:44;7.13;;;4.70;;
8139;SDS011;4111;50.972;7.072;2023-10-08T08:52:11;12.37;;;5.00;;
8139;SDS011;4111;50.972;7.072;2023-10-08T08:54:39;8.93;;;5.40;;
8139;SDS011;4111;50.972;7.072;2023-10-08T08:57:09;8.47;;;4.93;;
8139;SDS011;4111;50.972;7.072;2023-10-08T08:59:41;10.80;;;5.70;;
8139;SDS011;4111;50.972;7.072;2023-10-08T09:02:16;8.80;;;5.03;;
8139;SDS011;4111;50.972;7.072;2023-10-08T09:04:44;11.00;;;5.33;;
8139;SDS011;4111;50.972;7.072;2023-10-08T09:07:12;11.07;;;6.23;;
8139;SDS011;4111;50.972;7.072;2023-10-08T09:09:38;13.07;;;5.87;;
8139;SDS011;4111;50.972;7.072;2023-10-08T09:12:07;8.83;;;5.30;;
8139;SDS011;4111;50.972;7.072;2023-10-08T09:14:36;10.57;;;5.60;;
8139;SDS011;4111;50.972;7.072;2023-10-08T09:17:04;10.33;;;5.40;;
8139;SDS011;4111;50.972;7.072;2023-10-08T09:19:35;11.70;;;5.63;;
8139;SDS011;4111;50.972;7.072;2023-10-08T09:22:07;16.00;;;6.93;;
8139;SDS011;4111;50.972;7.072;2023-10-08T09:24:35;16.83;;;7.57;;
8139;SDS011;4111;50.972;7.072;2023-10-08T09:27:06;12.40;;;5.90;;
8139;SDS011;4111;50.972;7.072;2023-10-08T09:29:34;17.23;;;6.40;;
8139;SDS011;4111;50.972;7.072;2023-10-08T09:32:13;17.70;;;6.03;;
8139;SDS011;4111;50.972;7.072;2023-10-08T09:34:40;17.23;;;6.90;;
8139;SDS011;4111;50.972;7.072;2023-10-08T09:37:06;15.50;;;6.47;;
8139;SDS011;4111;50.972;7.072;2023-10-08T09:39:35;15.53;;;6.83;;
8139;SDS011;4111;50.972;7.072;2023-10-08T09:42:03;17.80;;;5.47;;
8139;SDS011;4111;50.972;7.072;2023-10-08T09:44:33;13.40;;;6.17;;
8139;SDS011;4111;50.972;7.072;2023-10-08T09:47:04;16.97;;;6.67;;
8139;SDS011;4111;50.972;7.072;2023-10-08T09:49:40;19.70;;;7.50;;
8139;SDS011;4111;50.972;7.072;2023-10-08T09:52:10;19.93;;;6.93;;
8139;SDS011;4111;50.972;7.072;2023-10-08T09:57:20;16.43;;;7.30;;
8139;SDS011;4111;50.972;7.072;2023-10-08T09:59:48;17.60;;;7.70;;
8139;SDS011;4111;50.972;7.072;2023-10-08T10:02:16;22.90;;;7.40;;
8139;SDS011;4111;50.972;7.072;2023-10-08T10:04:44;21.27;;;7.27;;
8139;SDS011;4111;50.972;7.072;2023-10-08T10:07:12;17.77;;;7.70;;
8139;SDS011;4111;50.972;7.072;2023-10-08T10:09:43;21.00;;;8.60;;
8139;SDS011;4111;50.972;7.072;2023-10-08T10:12:17;18.90;;;7.67;;
8139;SDS011;4111;50.972;7.072;2023-10-08T10:14:55;22.50;;;7.97;;
8139;SDS011;4111;50.972;7.072;2023-10-08T10:17:27;20.13;;;8.03;;
8139;SDS011;4111;50.972;7.072;2023-10-08T10:20:10;22.97;;;8.10;;
8139;SDS011;4111;50.972;7.072;2023-10-08T10:22:42;23.83;;;8.47;;
8139;SDS011;4111;50.972;7.072;2023-10-08T10:25:11;21.57;;;7.93;;
8139;SDS011;4111;50.972;7.072;2023-10-08T10:30:16;21.83;;;6.80;;
8139;SDS011;4111;50.972;7.072;2023-10-08T10:32:52;18.23;;;7.43;;
8139;SDS011;4111;50.972;7.072;2023-10-08T10:35:19;11.37;;;6.47;;
8139;SDS011;4111;50.972;7.072;2023-10-08T10:37:46;16.37;;;7.73;;
8139;SDS011;4111;50.972;7.072;2023-10-08T10:40:19;18.20;;;6.67;;
8139;SDS011;4111;50.972;7.072;2023-10-08T10:42:56;14.57;;;7.33;;
8139;SDS011;4111;50.972;7.072;2023-10-08T10:45:23;22.87;;;8.00;;
8139;SDS011;4111;50.972;7.072;2023-10-08T10:48:08;16.50;;;7.63;;
8139;SDS011;4111;50.972;7.072;2023-10-08T10:50:48;19.87;;;8.10;;
8139;SDS011;4111;50.972;7.072;2023-10-08T10:53:36;18.37;;;7.30;;
8139;SDS011;4111;50.972;7.072;2023-10-08T10:56:11;16.40;;;6.63;;
8139;SDS011;4111;50.972;7.072;2023-10-08T10:58:47;17.27;;;7.20;;
8139;SDS011;4111;50.972;7.072;2023-10-08T11:01:25;13.70;;;6.93;;
8139;SDS011;4111;50.972;7.072;2023-10-08T11:03:56;23.33;;;8.40;;
8139;SDS011;4111;50.972;7.072;2023-10-08T11:06:26;15.60;;;7.70;;
8139;SDS011;4111;50.972;7.072;2023-10-08T11:08:53;15.23;;;7.40;;
8139;SDS011;4111;50.972;7.072;2023-10-08T11:11:26;23.20;;;8.00;;
8139;SDS011;4111;50.972;7.072;2023-10-08T11:14:04;25.90;;;9.70;;
8139;SDS011;4111;50.972;7.072;2023-10-08T11:16:31;22.63;;;8.53;;
8139;SDS011;4111;50.972;7.072;2023-10-08T11:18:58;19.03;;;9.13;;
8139;SDS011;4111;50.972;7.072;2023-10-08T11:21:27;16.20;;;8.20;;
8139;SDS011;4111;50.972;7.072;2023-10-08T11:24:00;22.63;;;10.10;;
8139;SDS011;4111;50.972;7.072;2023-10-08T11:26:35;20.30;;;8.53;;
8139;SDS011;4111;50.972;7.072;2023-10-08T11:29:05;16.77;;;8.67;;
8139;SDS011;4111;50.972;7.072;2023-10-08T11:31:40;20.87;;;9.00;;
8139;SDS011;4111;50.972;7.072;2023-10-08T11:34:06;18.70;;;9.10;;
8139;SDS011;4111;50.972;7.072;2023-10-08T11:36:39;18.60;;;8.93;;
8139;SDS011;4111;50.972;7.072;2023-10-08T11:39:20;22.83;;;8.80;;
8139;SDS011;4111;50.972;7.072;2023-10-08T11:41:56;18.27;;;9.40;;
8139;SDS011;4111;50.972;7.072;2023-10-08T11:44:31;22.57;;;8.67;;
8139;SDS011;4111;50.972;7.072;2023-10-08T11:47:02;22.97;;;9.07;;
8139;SDS011;4111;50.972;7.072;2023-10-08T11:49:40;20.87;;;9.77;;
8139;SDS011;4111;50.972;7.072;2023-10-08T11:52:20;23.30;;;8.73;;
8139;SDS011;4111;50.972;7.072;2023-10-08T11:54:48;20.80;;;8.37;;
8139;SDS011;4111;50.972;7.072;2023-10-08T11:57:18;20.20;;;9.07;;
8139;SDS011;4111;50.972;7.072;2023-10-08T11:59:48;19.13;;;8.73;;
8139;SDS011;4111;50.972;7.072;2023-10-08T12:02:15;17.53;;;9.17;;
8139;SDS011;4111;50.972;7.072;2023-10-08T12:04:43;23.13;;;9.27;;
8139;SDS011;4111;50.972;7.072;2023-10-08T12:07:11;23.57;;;11.03;;
8139;SDS011;4111;50.972;7.072;2023-10-08T12:09:39;18.93;;;9.67;;
8139;SDS011;4111;50.972;7.072;2023-10-08T12:12:07;18.50;;;9.90;;
8139;SDS011;4111;50.972;7.072;2023-10-08T12:14:40;18.17;;;10.13;;
8139;SDS011;4111;50.972;7.072;2023-10-08T12:17:10;27.53;;;10.77;;
8139;SDS011;4111;50.972;7.072;2023-10-08T12:19:39;15.53;;;9.90;;
8139;SDS011;4111;50.972;7.072;2023-10-08T12:22:09;28.65;;;11.00;;
8139;SDS011;4111;50.972;7.072;2023-10-08T12:24:40;15.90;;;9.63;;
8139;SDS011;4111;50.972;7.072;2023-10-08T12:27:06;21.63;;;9.83;;
8139;SDS011;4111;50.972;7.072;2023-10-08T12:29:34;20.20;;;9.87;;
8139;SDS011;4111;50.972;7.072;2023-10-08T12:32:01;21.77;;;10.43;;
8139;SDS011;4111;50.972;7.072;2023-10-08T12:34:30;20.30;;;9.90;;
8139;SDS011;4111;50.972;7.072;2023-10-08T12:37:01;21.20;;;9.63;;
8139;SDS011;4111;50.972;7.072;2023-10-08T12:39:27;21.90;;;9.93;;
8139;SDS011;4111;50.972;7.072;2023-10-08T12:41:56;20.40;;;9.50;;
8139;SDS011;4111;50.972;7.072;2023-10-08T12:44:31;17.27;;;9.43;;
8139;SDS011;4111;50.972;7.072;2023-10-08T12:46:59;18.30;;;8.53;;
8139;SDS011;4111;50.972;7.072;2023-10-08T12:49:27;22.90;;;10.07;;
8139;SDS011;4111;50.972;7.072;2023-10-08T12:52:00;24.20;;;9.37;;
8139;SDS011;4111;50.972;7.072;2023-10-08T12:54:28;18.77;;;8.87;;
8139;SDS011;4111;50.972;7.072;2023-10-08T12:56:59;16.67;;;9.13;;
8139;SDS011;4111;50.972;7.072;2023-10-08T12:59:26;22.53;;;10.10;;
8139;SDS011;4111;50.972;7.072;2023-10-08T13:01:58;18.47;;;9.07;;
8139;SDS011;4111;50.972;7.072;2023-10-08T13:04:27;18.87;;;9.50;;
8139;SDS011;4111;50.972;7.072;2023-10-08T13:06:55;18.80;;;9.33;;
8139;SDS011;4111;50.972;7.072;2023-10-08T13:09:29;16.97;;;9.13;;
8139;SDS011;4111;50.972;7.072;2023-10-08T13:12:03;21.77;;;9.83;;
8139;SDS011;4111;50.972;7.072;2023-10-08T13:14:31;17.00;;;9.20;;
8139;SDS011;4111;50.972;7.072;2023-10-08T13:17:01;19.63;;;9.63;;
8139;SDS011;4111;50.972;7.072;2023-10-08T13:19:28;25.43;;;9.87;;
8139;SDS011;4111;50.972;7.072;2023-10-08T13:21:56;23.80;;;9.83;;
8139;SDS011;4111;50.972;7.072;2023-10-08T13:24:23;23.70;;;9.47;;
8139;SDS011;4111;50.972;7.072;2023-10-08T13:26:53;20.37;;;9.90;;
8139;SDS011;4111;50.972;7.072;2023-10-08T13:29:20;14.07;;;9.13;;
8139;SDS011;4111;50.972;7.072;2023-10-08T13:31:46;24.43;;;9.90;;
8139;SDS011;4111;50.972;7.072;2023-10-08T13:34:13;15.13;;;10.20;;
8139;SDS011;4111;50.972;7.072;2023-10-08T13:36:44;19.33;;;9.63;;
8139;SDS011;4111;50.972;7.072;2023-10-08T13:39:13;19.17;;;8.93;;
8139;SDS011;4111;50.972;7.072;2023-10-08T13:41:45;20.93;;;9.63;;
8139;SDS011;4111;50.972;7.072;2023-10-08T13:44:14;16.00;;;9.43;;
8139;SDS011;4111;50.972;7.072;2023-10-08T13:46:41;17.47;;;9.87;;
8139;SDS011;4111;50.972;7.072;2023-10-08T13:49:15;21.50;;;10.57;;
8139;SDS011;4111;50.972;7.072;2023-10-08T13:51:42;19.63;;;10.93;;
8139;SDS011;4111;50.972;7.072;2023-10-08T13:54:10;20.80;;;11.23;;
8139;SDS011;4111;50.972;7.072;2023-10-08T13:56:37;21.87;;;10.10;;
8139;SDS011;4111;50.972;7.072;2023-10-08T13:59:04;23.73;;;11.03;;
8139;SDS011;4111;50.972;7.072;2023-10-08T14:01:41;18.93;;;9.80;;
8139;SDS011;4111;50.972;7.072;2023-10-08T14:04:12;25.67;;;10.40;;
8139;SDS011;4111;50.972;7.072;2023-10-08T14:06:44;20.77;;;10.33;;
8139;SDS011;4111;50.972;7.072;2023-10-08T14:09:18;17.63;;;9.10;;
8139;SDS011;4111;50.972;7.072;2023-10-08T14:11:48;23.73;;;10.00;;
8139;SDS011;4111;50.972;7.072;2023-10-08T14:14:19;22.47;;;9.67;;
8139;SDS011;4111;50.972;7.072;2023-10-08T14:16:50;17.30;;;9.57;;
8139;SDS011;4111;50.972;7.072;2023-10-08T14:19:20;17.07;;;10.33;;
8139;SDS011;4111;50.972;7.072;2023-10-08T14:21:55;17.20;;;9.63;;
8139;SDS011;4111;50.972;7.072;2023-10-08T14:24:29;15.87;;;9.63;;
8139;SDS011;4111;50.972;7.072;2023-10-08T14:27:01;22.83;;;10.40;;
8139;SDS011;4111;50.972;7.072;2023-10-08T14:29:39;19.87;;;9.47;;
8139;SDS011;4111;50.972;7.072;2023-10-08T14:32:13;20.17;;;10.50;;
8139;SDS011;4111;50.972;7.072;2023-10-08T14:34:41;18.93;;;9.67;;
8139;SDS011;4111;50.972;7.072;2023-10-08T14:37:20;19.50;;;9.60;;
8139;SDS011;4111;50.972;7.072;2023-10-08T14:40:06;17.43;;;9.70;;
8139;SDS011;4111;50.972;7.072;2023-10-08T14:42:51;18.93;;;9.67;;
8139;SDS011;4111;50.972;7.072;2023-10-08T14:45:30;19.10;;;9.13;;
8139;SDS011;4111;50.972;7.072;2023-10-08T14:47:59;17.63;;;9.43;;
8139;SDS011;4111;50.972;7.072;2023-10-08T14:50:26;21.20;;;10.87;;
8139;SDS011;4111;50.972;7.072;2023-10-08T14:52:54;19.27;;;9.77;;
8139;SDS011;4111;50.972;7.072;2023-10-08T14:55:21;17.90;;;10.17;;
8139;SDS011;4111;50.972;7.072;2023-10-08T14:57:51;16.47;;;9.50;;
8139;SDS011;4111;50.972;7.072;2023-10-08T15:00:19;18.53;;;9.37;;
8139;SDS011;4111;50.972;7.072;2023-10-08T15:02:51;17.13;;;9.33;;
8139;SDS011;4111;50.972;7.072;2023-10-08T15:05:20;18.20;;;9.63;;
8139;SDS011;4111;50.972;7.072;2023-10-08T15:07:49;18.97;;;10.73;;
8139;SDS011;4111;50.972;7.072;2023-10-08T15:10:18;19.27;;;10.67;;
8139;SDS011;4111;50.972;7.072;2023-10-08T15:12:47;19.10;;;9.43;;
8139;SDS011;4111;50.972;7.072;2023-10-08T15:15:17;16.80;;;9.33;;
8139;SDS011;4111;50.972;7.072;2023-10-08T15:17:45;17.53;;;9.97;;
8139;SDS011;4111;50.972;7.072;2023-10-08T15:20:13;20.70;;;9.87;;
8139;SDS011;4111;50.972;7.072;2023-10-08T15:22:43;19.23;;;10.27;;
8139;SDS011;4111;50.972;7.072;2023-10-08T15:25:10;18.07;;;10.43;;
8139;SDS011;4111;50.972;7.072;2023-10-08T15:27:39;19.47;;;9.90;;
8139;SDS011;4111;50.972;7.072;2023-10-08T15:30:10;20.80;;;10.80;;
8139;SDS011;4111;50.972;7.072;2023-10-08T15:32:38;25.20;;;14.90;;
8139;SDS011;4111;50.972;7.072;2023-10-08T15:35:09;20.13;;;12.17;;
8139;SDS011;4111;50.972;7.072;2023-10-08T15:37:40;20.07;;;10.50;;
8139;SDS011;4111;50.972;7.072;2023-10-08T15:40:08;25.53;;;18.03;;
8139;SDS011;4111;50.972;7.072;2023-10-08T15:42:43;22.43;;;11.80;;
8139;SDS011;4111;50.972;7.072;2023-10-08T15:45:14;25.67;;;10.73;;
8139;SDS011;4111;50.972;7.072;2023-10-08T15:47:40;20.80;;;10.33;;
8139;SDS011;4111;50.972;7.072;2023-10-08T15:50:07;22.13;;;9.67;;